sensor_id;sensor_type;location;lat;lon;timestamp;P1;durP1;ratioP1;P2;durP2;ratioP2
77417;SDS011;66490;51.484;0.026;2023-05-24T00:00:33;8.50;;;2.55;;
77417;SDS011;66490;51.484;0.026;2023-05-24T00:03:20;11.18;;;2.80;;
77417;SDS011;66490;51.484;0.026;2023-05-24T00:06:04;8.23;;;2.30;;
77417;SDS011;66490;51.484;0.026;2023-05-24T00:08:49;11.63;;;3.33;;
77417;SDS011;66490;51.484;0.026;2023-05-24T00:11:37;9.10;;;3.13;;
77417;SDS011;66490;51.484;0.026;2023-05-24T00:14:21;8.77;;;2.20;;
77417;SDS011;66490;51.484;0.026;2023-05-24T00:20:13;8.43;;;2.20;;
77417;SDS011;66490;51.484;0.026;2023-05-24T00:22:57;10.95;;;2.35;;
77417;SDS011;66490;51.484;0.026;2023-05-24T00:28:55;10.30;;;2.10;;
77417;SDS011;66490;51.484;0.026;2023-05-24T00:31:40;7.82;;;3.03;;
77417;SDS011;66490;51.484;0.026;2023-05-24T00:34:24;10.40;;;2.03;;
77417;SDS011;66490;51.484;0.026;2023-05-24T00:37:08;9.82;;;1.50;;
77417;SDS011;66490;51.484;0.026;2023-05-24T00:39:55;8.45;;;2.40;;
77417;SDS011;66490;51.484;0.026;2023-05-24T00:42:40;7.50;;;2.20;;
77417;SDS011;66490;51.484;0.026;2023-05-24T00:45:35;9.73;;;2.20;;
77417;SDS011;66490;51.484;0.026;2023-05-24T00:48:23;7.00;;;1.73;;
77417;SDS011;66490;51.484;0.026;2023-05-24T00:51:16;11.15;;;2.30;;
77417;SDS011;66490;51.484;0.026;2023-05-24T00:54:03;8.30;;;2.70;;
77417;SDS011;66490;51.484;0.026;2023-05-24T00:56:52;9.43;;;2.25;;
77417;SDS011;66490;51.484;0.026;2023-05-24T00:59:43;8.13;;;2.88;;
77417;SDS011;66490;51.484;0.026;2023-05-24T01:02:37;9.47;;;2.20;;
77417;SDS011;66490;51.484;0.026;2023-05-24T01:05:35;7.60;;;2.05;;
77417;SDS011;66490;51.484;0.026;2023-05-24T01:17:25;10.00;;;2.93;;
77417;SDS011;66490;51.484;0.026;2023-05-24T01:20:10;8.85;;;1.98;;
77417;SDS011;66490;51.484;0.026;2023-05-24T01:26:19;7.25;;;2.38;;
77417;SDS011;66490;51.484;0.026;2023-05-24T01:29:05;9.27;;;2.70;;
77417;SDS011;66490;51.484;0.026;2023-05-24T01:31:53;7.63;;;2.40;;
77417;SDS011;66490;51.484;0.026;2023-05-24T01:34:37;7.45;;;2.25;;
77417;SDS011;66490;51.484;0.026;2023-05-24T01:37:21;7.28;;;2.33;;
77417;SDS011;66490;51.484;0.026;2023-05-24T01:40:09;10.25;;;2.25;;
77417;SDS011;66490;51.484;0.026;2023-05-24T01:49:25;9.18;;;2.70;;
77417;SDS011;66490;51.484;0.026;2023-05-24T01:52:14;9.55;;;2.42;;
77417;SDS011;66490;51.484;0.026;2023-05-24T01:54:59;9.18;;;2.47;;
77417;SDS011;66490;51.484;0.026;2023-05-24T01:57:44;10.55;;;3.58;;
77417;SDS011;66490;51.484;0.026;2023-05-24T02:00:34;10.27;;;2.60;;
77417;SDS011;66490;51.484;0.026;2023-05-24T02:03:18;8.00;;;2.03;;
77417;SDS011;66490;51.484;0.026;2023-05-24T02:06:05;10.93;;;2.58;;
77417;SDS011;66490;51.484;0.026;2023-05-24T02:08:57;6.93;;;2.65;;
77417;SDS011;66490;51.484;0.026;2023-05-24T02:14:49;7.93;;;2.57;;
77417;SDS011;66490;51.484;0.026;2023-05-24T02:17:34;9.07;;;2.72;;
77417;SDS011;66490;51.484;0.026;2023-05-24T02:20:20;11.45;;;2.72;;
77417;SDS011;66490;51.484;0.026;2023-05-24T02:23:13;8.88;;;2.50;;
77417;SDS011;66490;51.484;0.026;2023-05-24T02:26:05;8.02;;;2.75;;
77417;SDS011;66490;51.484;0.026;2023-05-24T02:28:49;9.80;;;2.70;;
77417;SDS011;66490;51.484;0.026;2023-05-24T02:31:33;10.45;;;2.08;;
77417;SDS011;66490;51.484;0.026;2023-05-24T02:34:18;9.65;;;2.25;;
77417;SDS011;66490;51.484;0.026;2023-05-24T02:37:08;9.38;;;2.75;;
77417;SDS011;66490;51.484;0.026;2023-05-24T02:39:57;11.73;;;2.63;;
77417;SDS011;66490;51.484;0.026;2023-05-24T02:42:44;9.67;;;2.17;;
77417;SDS011;66490;51.484;0.026;2023-05-24T02:45:28;8.13;;;2.17;;
77417;SDS011;66490;51.484;0.026;2023-05-24T02:48:12;8.73;;;2.30;;
77417;SDS011;66490;51.484;0.026;2023-05-24T02:50:59;8.73;;;2.05;;
77417;SDS011;66490;51.484;0.026;2023-05-24T02:53:45;8.50;;;2.22;;
77417;SDS011;66490;51.484;0.026;2023-05-24T02:56:30;7.60;;;1.90;;
77417;SDS011;66490;51.484;0.026;2023-05-24T02:59:14;8.68;;;1.95;;
77417;SDS011;66490;51.484;0.026;2023-05-24T03:01:58;10.10;;;2.90;;
77417;SDS011;66490;51.484;0.026;2023-05-24T03:04:42;8.55;;;2.53;;
77417;SDS011;66490;51.484;0.026;2023-05-24T03:07:29;5.18;;;2.13;;
77417;SDS011;66490;51.484;0.026;2023-05-24T03:10:16;6.93;;;2.30;;
77417;SDS011;66490;51.484;0.026;2023-05-24T03:13:09;11.85;;;3.42;;
77417;SDS011;66490;51.484;0.026;2023-05-24T03:15:53;8.13;;;2.88;;
77417;SDS011;66490;51.484;0.026;2023-05-24T03:18:37;8.63;;;2.70;;
77417;SDS011;66490;51.484;0.026;2023-05-24T03:21:21;8.82;;;2.58;;
77417;SDS011;66490;51.484;0.026;2023-05-24T03:24:25;7.07;;;1.97;;
77417;SDS011;66490;51.484;0.026;2023-05-24T03:27:12;10.00;;;2.50;;
77417;SDS011;66490;51.484;0.026;2023-05-24T03:29:59;10.23;;;2.45;;
77417;SDS011;66490;51.484;0.026;2023-05-24T03:32:46;6.70;;;2.08;;
77417;SDS011;66490;51.484;0.026;2023-05-24T03:35:35;9.70;;;3.25;;
77417;SDS011;66490;51.484;0.026;2023-05-24T03:38:28;10.97;;;2.23;;
77417;SDS011;66490;51.484;0.026;2023-05-24T03:41:13;8.43;;;2.15;;
77417;SDS011;66490;51.484;0.026;2023-05-24T03:44:00;12.02;;;2.65;;
77417;SDS011;66490;51.484;0.026;2023-05-24T03:46:44;12.43;;;2.88;;
77417;SDS011;66490;51.484;0.026;2023-05-24T03:49:34;10.00;;;2.63;;
77417;SDS011;66490;51.484;0.026;2023-05-24T03:52:21;7.63;;;2.40;;
77417;SDS011;66490;51.484;0.026;2023-05-24T03:55:08;10.77;;;3.50;;
77417;SDS011;66490;51.484;0.026;2023-05-24T03:57:57;9.93;;;3.60;;
77417;SDS011;66490;51.484;0.026;2023-05-24T04:01:17;8.50;;;3.00;;
77417;SDS011;66490;51.484;0.026;2023-05-24T04:04:10;11.50;;;3.20;;
77417;SDS011;66490;51.484;0.026;2023-05-24T04:07:22;11.70;;;2.83;;
77417;SDS011;66490;51.484;0.026;2023-05-24T04:10:29;8.68;;;3.03;;
77417;SDS011;66490;51.484;0.026;2023-05-24T04:13:34;13.82;;;3.75;;
77417;SDS011;66490;51.484;0.026;2023-05-24T04:16:18;10.15;;;3.50;;
77417;SDS011;66490;51.484;0.026;2023-05-24T04:19:23;15.15;;;3.63;;
77417;SDS011;66490;51.484;0.026;2023-05-24T04:22:28;11.87;;;3.30;;
77417;SDS011;66490;51.484;0.026;2023-05-24T04:25:25;12.15;;;3.75;;
77417;SDS011;66490;51.484;0.026;2023-05-24T04:28:10;10.90;;;4.13;;
77417;SDS011;66490;51.484;0.026;2023-05-24T04:30:54;10.38;;;3.25;;
77417;SDS011;66490;51.484;0.026;2023-05-24T04:33:45;15.18;;;4.43;;
77417;SDS011;66490;51.484;0.026;2023-05-24T04:36:40;13.77;;;3.87;;
77417;SDS011;66490;51.484;0.026;2023-05-24T04:39:30;9.38;;;3.67;;
77417;SDS011;66490;51.484;0.026;2023-05-24T04:42:16;14.00;;;4.60;;
77417;SDS011;66490;51.484;0.026;2023-05-24T04:45:03;12.27;;;4.70;;
77417;SDS011;66490;51.484;0.026;2023-05-24T04:47:51;11.25;;;4.47;;
77417;SDS011;66490;51.484;0.026;2023-05-24T04:50:35;14.97;;;3.67;;
77417;SDS011;66490;51.484;0.026;2023-05-24T04:53:25;12.75;;;3.90;;
77417;SDS011;66490;51.484;0.026;2023-05-24T04:56:15;11.43;;;3.97;;
77417;SDS011;66490;51.484;0.026;2023-05-24T04:59:02;12.52;;;3.55;;
77417;SDS011;66490;51.484;0.026;2023-05-24T05:01:46;14.85;;;5.10;;
77417;SDS011;66490;51.484;0.026;2023-05-24T05:04:31;12.90;;;3.60;;
77417;SDS011;66490;51.484;0.026;2023-05-24T05:07:18;15.02;;;4.47;;
77417;SDS011;66490;51.484;0.026;2023-05-24T05:10:07;14.45;;;6.03;;
77417;SDS011;66490;51.484;0.026;2023-05-24T05:12:54;18.20;;;4.95;;
77417;SDS011;66490;51.484;0.026;2023-05-24T05:15:38;11.80;;;5.82;;
77417;SDS011;66490;51.484;0.026;2023-05-24T05:18:25;13.53;;;4.50;;
77417;SDS011;66490;51.484;0.026;2023-05-24T05:21:09;11.23;;;3.92;;
77417;SDS011;66490;51.484;0.026;2023-05-24T05:23:59;13.15;;;4.72;;
77417;SDS011;66490;51.484;0.026;2023-05-24T05:26:43;13.23;;;4.60;;
77417;SDS011;66490;51.484;0.026;2023-05-24T05:29:27;17.05;;;4.82;;
77417;SDS011;66490;51.484;0.026;2023-05-24T05:32:11;15.57;;;3.83;;
77417;SDS011;66490;51.484;0.026;2023-05-24T05:34:56;12.18;;;4.78;;
77417;SDS011;66490;51.484;0.026;2023-05-24T05:41:01;17.30;;;4.57;;
77417;SDS011;66490;51.484;0.026;2023-05-24T05:43:50;17.98;;;5.25;;
77417;SDS011;66490;51.484;0.026;2023-05-24T05:46:37;18.83;;;4.47;;
77417;SDS011;66490;51.484;0.026;2023-05-24T05:49:24;15.32;;;4.70;;
77417;SDS011;66490;51.484;0.026;2023-05-24T05:52:09;18.77;;;4.78;;
77417;SDS011;66490;51.484;0.026;2023-05-24T05:54:57;15.20;;;5.43;;
77417;SDS011;66490;51.484;0.026;2023-05-24T05:57:41;22.23;;;7.20;;
77417;SDS011;66490;51.484;0.026;2023-05-24T06:00:29;19.60;;;4.50;;
77417;SDS011;66490;51.484;0.026;2023-05-24T06:03:29;14.80;;;4.47;;
77417;SDS011;66490;51.484;0.026;2023-05-24T06:06:13;19.38;;;4.88;;
77417;SDS011;66490;51.484;0.026;2023-05-24T06:09:03;15.88;;;4.20;;
77417;SDS011;66490;51.484;0.026;2023-05-24T06:11:47;15.57;;;5.35;;
77417;SDS011;66490;51.484;0.026;2023-05-24T06:14:34;18.00;;;5.13;;
77417;SDS011;66490;51.484;0.026;2023-05-24T06:17:21;22.35;;;4.93;;
77417;SDS011;66490;51.484;0.026;2023-05-24T06:20:07;19.65;;;5.88;;
77417;SDS011;66490;51.484;0.026;2023-05-24T06:23:00;12.38;;;4.53;;
77417;SDS011;66490;51.484;0.026;2023-05-24T06:25:45;16.50;;;5.95;;
77417;SDS011;66490;51.484;0.026;2023-05-24T06:28:50;14.13;;;3.70;;
77417;SDS011;66490;51.484;0.026;2023-05-24T06:31:50;21.23;;;4.97;;
77417;SDS011;66490;51.484;0.026;2023-05-24T06:34:34;18.45;;;4.80;;
77417;SDS011;66490;51.484;0.026;2023-05-24T06:37:25;16.42;;;4.72;;
77417;SDS011;66490;51.484;0.026;2023-05-24T06:40:17;15.85;;;5.22;;
77417;SDS011;66490;51.484;0.026;2023-05-24T06:43:21;16.37;;;4.73;;
77417;SDS011;66490;51.484;0.026;2023-05-24T06:46:11;14.93;;;4.13;;
77417;SDS011;66490;51.484;0.026;2023-05-24T06:48:56;19.17;;;5.88;;
77417;SDS011;66490;51.484;0.026;2023-05-24T06:51:41;17.98;;;4.68;;
77417;SDS011;66490;51.484;0.026;2023-05-24T06:54:31;23.55;;;5.78;;
77417;SDS011;66490;51.484;0.026;2023-05-24T06:57:16;15.33;;;4.47;;
77417;SDS011;66490;51.484;0.026;2023-05-24T07:00:00;17.75;;;4.97;;
77417;SDS011;66490;51.484;0.026;2023-05-24T07:02:52;13.75;;;5.35;;
77417;SDS011;66490;51.484;0.026;2023-05-24T07:05:44;16.45;;;6.10;;
77417;SDS011;66490;51.484;0.026;2023-05-24T07:08:28;20.38;;;6.90;;
77417;SDS011;66490;51.484;0.026;2023-05-24T07:11:13;16.50;;;5.17;;
77417;SDS011;66490;51.484;0.026;2023-05-24T07:13:59;19.85;;;5.32;;
77417;SDS011;66490;51.484;0.026;2023-05-24T07:16:46;13.88;;;4.60;;
77417;SDS011;66490;51.484;0.026;2023-05-24T07:19:34;15.45;;;4.68;;
77417;SDS011;66490;51.484;0.026;2023-05-24T07:22:24;17.15;;;6.15;;
77417;SDS011;66490;51.484;0.026;2023-05-24T07:25:11;10.83;;;4.13;;
77417;SDS011;66490;51.484;0.026;2023-05-24T07:27:56;18.58;;;6.10;;
77417;SDS011;66490;51.484;0.026;2023-05-24T07:30:43;20.92;;;5.20;;
77417;SDS011;66490;51.484;0.026;2023-05-24T07:33:27;13.82;;;5.30;;
77417;SDS011;66490;51.484;0.026;2023-05-24T07:36:12;13.90;;;5.60;;
77417;SDS011;66490;51.484;0.026;2023-05-24T07:38:59;14.73;;;5.43;;
77417;SDS011;66490;51.484;0.026;2023-05-24T07:41:47;18.27;;;5.10;;
77417;SDS011;66490;51.484;0.026;2023-05-24T07:44:33;14.55;;;5.60;;
77417;SDS011;66490;51.484;0.026;2023-05-24T07:47:27;17.63;;;4.68;;
77417;SDS011;66490;51.484;0.026;2023-05-24T07:50:14;18.90;;;5.70;;
77417;SDS011;66490;51.484;0.026;2023-05-24T07:53:01;17.43;;;5.63;;
77417;SDS011;66490;51.484;0.026;2023-05-24T07:55:45;18.50;;;4.93;;
77417;SDS011;66490;51.484;0.026;2023-05-24T07:58:29;14.88;;;4.97;;
77417;SDS011;66490;51.484;0.026;2023-05-24T08:01:32;18.40;;;5.05;;
77417;SDS011;66490;51.484;0.026;2023-05-24T08:04:19;13.20;;;4.32;;
77417;SDS011;66490;51.484;0.026;2023-05-24T08:07:06;15.90;;;4.60;;
77417;SDS011;66490;51.484;0.026;2023-05-24T08:09:50;19.25;;;4.88;;
77417;SDS011;66490;51.484;0.026;2023-05-24T08:12:35;14.82;;;4.53;;
77417;SDS011;66490;51.484;0.026;2023-05-24T08:15:21;16.52;;;5.25;;
77417;SDS011;66490;51.484;0.026;2023-05-24T08:18:05;15.13;;;4.63;;
77417;SDS011;66490;51.484;0.026;2023-05-24T08:20:52;14.60;;;4.53;;
77417;SDS011;66490;51.484;0.026;2023-05-24T08:23:36;14.65;;;4.60;;
77417;SDS011;66490;51.484;0.026;2023-05-24T08:26:22;15.75;;;4.13;;
77417;SDS011;66490;51.484;0.026;2023-05-24T08:29:07;15.55;;;5.10;;
77417;SDS011;66490;51.484;0.026;2023-05-24T08:31:51;12.32;;;4.47;;
77417;SDS011;66490;51.484;0.026;2023-05-24T08:34:36;19.23;;;4.70;;
77417;SDS011;66490;51.484;0.026;2023-05-24T08:37:20;15.85;;;4.60;;
77417;SDS011;66490;51.484;0.026;2023-05-24T08:40:05;17.08;;;4.47;;
77417;SDS011;66490;51.484;0.026;2023-05-24T08:42:52;15.35;;;4.55;;
77417;SDS011;66490;51.484;0.026;2023-05-24T08:45:41;19.42;;;5.88;;
77417;SDS011;66490;51.484;0.026;2023-05-24T08:48:25;27.77;;;5.37;;
77417;SDS011;66490;51.484;0.026;2023-05-24T08:51:11;17.10;;;4.40;;
77417;SDS011;66490;51.484;0.026;2023-05-24T08:53:58;18.45;;;4.78;;
77417;SDS011;66490;51.484;0.026;2023-05-24T08:56:43;17.92;;;5.53;;
77417;SDS011;66490;51.484;0.026;2023-05-24T08:59:27;24.90;;;5.00;;
77417;SDS011;66490;51.484;0.026;2023-05-24T09:02:17;17.50;;;4.40;;
77417;SDS011;66490;51.484;0.026;2023-05-24T09:05:05;19.73;;;4.85;;
77417;SDS011;66490;51.484;0.026;2023-05-24T09:07:58;13.55;;;3.78;;
77417;SDS011;66490;51.484;0.026;2023-05-24T09:10:45;17.67;;;4.45;;
77417;SDS011;66490;51.484;0.026;2023-05-24T09:13:30;13.73;;;4.20;;
77417;SDS011;66490;51.484;0.026;2023-05-24T09:16:14;15.00;;;4.37;;
77417;SDS011;66490;51.484;0.026;2023-05-24T09:18:58;10.77;;;3.70;;
77417;SDS011;66490;51.484;0.026;2023-05-24T09:21:47;19.08;;;4.78;;
77417;SDS011;66490;51.484;0.026;2023-05-24T09:24:39;13.18;;;3.83;;
77417;SDS011;66490;51.484;0.026;2023-05-24T09:27:23;17.85;;;4.30;;
77417;SDS011;66490;51.484;0.026;2023-05-24T09:30:10;12.60;;;3.97;;
77417;SDS011;66490;51.484;0.026;2023-05-24T09:35:43;15.77;;;4.65;;
77417;SDS011;66490;51.484;0.026;2023-05-24T09:38:27;16.55;;;4.43;;
77417;SDS011;66490;51.484;0.026;2023-05-24T09:41:12;11.32;;;3.97;;
77417;SDS011;66490;51.484;0.026;2023-05-24T09:43:56;11.83;;;4.30;;
77417;SDS011;66490;51.484;0.026;2023-05-24T09:46:40;15.32;;;4.90;;
77417;SDS011;66490;51.484;0.026;2023-05-24T09:49:24;16.52;;;4.25;;
77417;SDS011;66490;51.484;0.026;2023-05-24T09:52:12;14.80;;;3.08;;
77417;SDS011;66490;51.484;0.026;2023-05-24T09:54:56;13.68;;;4.50;;
77417;SDS011;66490;51.484;0.026;2023-05-24T09:57:41;14.80;;;3.47;;
77417;SDS011;66490;51.484;0.026;2023-05-24T10:00:26;14.90;;;4.25;;
77417;SDS011;66490;51.484;0.026;2023-05-24T10:03:10;13.55;;;4.53;;
77417;SDS011;66490;51.484;0.026;2023-05-24T10:05:55;15.40;;;4.03;;
77417;SDS011;66490;51.484;0.026;2023-05-24T10:08:40;14.70;;;3.97;;
77417;SDS011;66490;51.484;0.026;2023-05-24T10:11:24;11.87;;;3.63;;
77417;SDS011;66490;51.484;0.026;2023-05-24T10:14:09;10.45;;;3.22;;
77417;SDS011;66490;51.484;0.026;2023-05-24T10:16:53;13.70;;;4.38;;
77417;SDS011;66490;51.484;0.026;2023-05-24T10:19:39;13.10;;;4.25;;
77417;SDS011;66490;51.484;0.026;2023-05-24T10:22:24;14.77;;;3.97;;
77417;SDS011;66490;51.484;0.026;2023-05-24T10:25:09;13.93;;;4.17;;
77417;SDS011;66490;51.484;0.026;2023-05-24T10:28:01;13.48;;;4.45;;
77417;SDS011;66490;51.484;0.026;2023-05-24T10:33:36;13.18;;;3.97;;
77417;SDS011;66490;51.484;0.026;2023-05-24T10:36:20;11.68;;;4.57;;
77417;SDS011;66490;51.484;0.026;2023-05-24T10:39:07;16.30;;;4.50;;
77417;SDS011;66490;51.484;0.026;2023-05-24T10:41:54;11.15;;;3.78;;
77417;SDS011;66490;51.484;0.026;2023-05-24T10:44:38;13.57;;;3.90;;
77417;SDS011;66490;51.484;0.026;2023-05-24T10:47:24;9.73;;;3.08;;
77417;SDS011;66490;51.484;0.026;2023-05-24T10:50:18;10.88;;;3.58;;
77417;SDS011;66490;51.484;0.026;2023-05-24T10:53:15;12.17;;;4.07;;
77417;SDS011;66490;51.484;0.026;2023-05-24T10:56:01;11.80;;;4.05;;
77417;SDS011;66490;51.484;0.026;2023-05-24T11:01:56;12.77;;;4.10;;
77417;SDS011;66490;51.484;0.026;2023-05-24T11:04:46;11.98;;;4.10;;
77417;SDS011;66490;51.484;0.026;2023-05-24T11:07:32;13.40;;;4.67;;
77417;SDS011;66490;51.484;0.026;2023-05-24T11:10:30;11.77;;;3.78;;
77417;SDS011;66490;51.484;0.026;2023-05-24T11:13:17;9.15;;;3.33;;
77417;SDS011;66490;51.484;0.026;2023-05-24T11:16:05;11.95;;;3.75;;
77417;SDS011;66490;51.484;0.026;2023-05-24T11:18:58;11.05;;;4.05;;
77417;SDS011;66490;51.484;0.026;2023-05-24T11:21:48;9.27;;;3.37;;
77417;SDS011;66490;51.484;0.026;2023-05-24T11:24:32;10.38;;;3.55;;
77417;SDS011;66490;51.484;0.026;2023-05-24T11:27:16;13.45;;;3.33;;
77417;SDS011;66490;51.484;0.026;2023-05-24T11:30:00;10.10;;;3.78;;
77417;SDS011;66490;51.484;0.026;2023-05-24T11:32:48;12.05;;;3.67;;
77417;SDS011;66490;51.484;0.026;2023-05-24T11:35:31;10.90;;;4.07;;
77417;SDS011;66490;51.484;0.026;2023-05-24T11:38:17;10.07;;;3.33;;
77417;SDS011;66490;51.484;0.026;2023-05-24T11:41:04;10.57;;;3.80;;
77417;SDS011;66490;51.484;0.026;2023-05-24T11:43:50;12.40;;;3.97;;
77417;SDS011;66490;51.484;0.026;2023-05-24T11:46:34;11.68;;;5.05;;
77417;SDS011;66490;51.484;0.026;2023-05-24T11:49:18;10.73;;;3.73;;
77417;SDS011;66490;51.484;0.026;2023-05-24T11:52:03;10.32;;;3.80;;
77417;SDS011;66490;51.484;0.026;2023-05-24T11:54:48;10.48;;;4.25;;
77417;SDS011;66490;51.484;0.026;2023-05-24T11:57:36;11.60;;;4.35;;
77417;SDS011;66490;51.484;0.026;2023-05-24T12:00:24;12.13;;;4.43;;
77417;SDS011;66490;51.484;0.026;2023-05-24T12:03:09;12.77;;;3.77;;
77417;SDS011;66490;51.484;0.026;2023-05-24T12:05:55;10.32;;;3.80;;
77417;SDS011;66490;51.484;0.026;2023-05-24T12:08:42;13.10;;;4.13;;
77417;SDS011;66490;51.484;0.026;2023-05-24T12:11:26;13.30;;;4.32;;
77417;SDS011;66490;51.484;0.026;2023-05-24T12:14:15;16.95;;;4.60;;
77417;SDS011;66490;51.484;0.026;2023-05-24T12:20:08;12.77;;;4.40;;
77417;SDS011;66490;51.484;0.026;2023-05-24T12:23:01;10.38;;;4.68;;
77417;SDS011;66490;51.484;0.026;2023-05-24T12:25:59;12.07;;;3.80;;
77417;SDS011;66490;51.484;0.026;2023-05-24T12:29:08;10.35;;;4.20;;
77417;SDS011;66490;51.484;0.026;2023-05-24T12:31:52;14.73;;;4.60;;
77417;SDS011;66490;51.484;0.026;2023-05-24T12:34:48;8.73;;;3.30;;
77417;SDS011;66490;51.484;0.026;2023-05-24T12:37:32;11.77;;;3.15;;
77417;SDS011;66490;51.484;0.026;2023-05-24T12:40:20;11.57;;;3.75;;
77417;SDS011;66490;51.484;0.026;2023-05-24T12:43:14;10.52;;;4.00;;
77417;SDS011;66490;51.484;0.026;2023-05-24T12:46:15;10.60;;;3.17;;
77417;SDS011;66490;51.484;0.026;2023-05-24T12:49:03;8.88;;;3.38;;
77417;SDS011;66490;51.484;0.026;2023-05-24T12:51:48;11.10;;;4.15;;
77417;SDS011;66490;51.484;0.026;2023-05-24T12:54:35;11.68;;;3.60;;
77417;SDS011;66490;51.484;0.026;2023-05-24T12:57:22;9.15;;;3.58;;
77417;SDS011;66490;51.484;0.026;2023-05-24T13:00:07;11.03;;;4.07;;
77417;SDS011;66490;51.484;0.026;2023-05-24T13:02:52;9.10;;;3.20;;
77417;SDS011;66490;51.484;0.026;2023-05-24T13:08:42;11.13;;;3.30;;
77417;SDS011;66490;51.484;0.026;2023-05-24T13:11:26;10.88;;;3.78;;
77417;SDS011;66490;51.484;0.026;2023-05-24T13:14:11;15.00;;;3.90;;
77417;SDS011;66490;51.484;0.026;2023-05-24T13:17:00;9.30;;;3.83;;
77417;SDS011;66490;51.484;0.026;2023-05-24T13:19:47;10.07;;;3.30;;
77417;SDS011;66490;51.484;0.026;2023-05-24T13:22:35;9.88;;;3.53;;
77417;SDS011;66490;51.484;0.026;2023-05-24T13:25:22;10.48;;;3.47;;
77417;SDS011;66490;51.484;0.026;2023-05-24T13:28:12;11.57;;;3.70;;
77417;SDS011;66490;51.484;0.026;2023-05-24T13:30:56;14.02;;;3.63;;
77417;SDS011;66490;51.484;0.026;2023-05-24T13:33:41;9.68;;;3.88;;
77417;SDS011;66490;51.484;0.026;2023-05-24T13:36:25;10.30;;;4.00;;
77417;SDS011;66490;51.484;0.026;2023-05-24T13:39:11;8.68;;;3.83;;
77417;SDS011;66490;51.484;0.026;2023-05-24T13:41:55;10.47;;;3.57;;
77417;SDS011;66490;51.484;0.026;2023-05-24T13:44:40;11.82;;;3.10;;
77417;SDS011;66490;51.484;0.026;2023-05-24T13:47:24;8.40;;;3.85;;
77417;SDS011;66490;51.484;0.026;2023-05-24T13:50:09;9.25;;;3.65;;
77417;SDS011;66490;51.484;0.026;2023-05-24T13:52:53;11.13;;;4.13;;
77417;SDS011;66490;51.484;0.026;2023-05-24T13:55:38;8.93;;;3.77;;
77417;SDS011;66490;51.484;0.026;2023-05-24T13:58:22;10.73;;;4.20;;
77417;SDS011;66490;51.484;0.026;2023-05-24T14:04:18;9.32;;;3.70;;
77417;SDS011;66490;51.484;0.026;2023-05-24T14:07:07;13.38;;;4.40;;
77417;SDS011;66490;51.484;0.026;2023-05-24T14:19:45;10.63;;;4.22;;
77417;SDS011;66490;51.484;0.026;2023-05-24T14:22:32;10.70;;;4.85;;
77417;SDS011;66490;51.484;0.026;2023-05-24T14:25:38;12.40;;;4.40;;
77417;SDS011;66490;51.484;0.026;2023-05-24T14:28:50;8.75;;;4.25;;
77417;SDS011;66490;51.484;0.026;2023-05-24T14:31:58;9.43;;;4.15;;
77417;SDS011;66490;51.484;0.026;2023-05-24T14:35:24;10.43;;;4.03;;
77417;SDS011;66490;51.484;0.026;2023-05-24T14:38:10;10.75;;;4.30;;
77417;SDS011;66490;51.484;0.026;2023-05-24T14:41:04;8.80;;;3.97;;
77417;SDS011;66490;51.484;0.026;2023-05-24T14:44:04;9.30;;;3.75;;
77417;SDS011;66490;51.484;0.026;2023-05-24T14:47:02;12.50;;;5.22;;
77417;SDS011;66490;51.484;0.026;2023-05-24T14:50:02;10.65;;;4.55;;
77417;SDS011;66490;51.484;0.026;2023-05-24T14:53:12;17.38;;;5.05;;
77417;SDS011;66490;51.484;0.026;2023-05-24T14:56:02;11.50;;;4.60;;
77417;SDS011;66490;51.484;0.026;2023-05-24T14:58:54;10.60;;;4.47;;
77417;SDS011;66490;51.484;0.026;2023-05-24T15:01:55;11.15;;;4.18;;
77417;SDS011;66490;51.484;0.026;2023-05-24T15:04:49;13.15;;;4.10;;
77417;SDS011;66490;51.484;0.026;2023-05-24T15:07:40;8.73;;;4.22;;
77417;SDS011;66490;51.484;0.026;2023-05-24T15:10:27;8.97;;;3.90;;
77417;SDS011;66490;51.484;0.026;2023-05-24T15:13:11;12.35;;;4.00;;
77417;SDS011;66490;51.484;0.026;2023-05-24T15:16:05;11.35;;;4.07;;
77417;SDS011;66490;51.484;0.026;2023-05-24T15:18:52;10.07;;;4.07;;
77417;SDS011;66490;51.484;0.026;2023-05-24T15:22:01;9.32;;;4.28;;
77417;SDS011;66490;51.484;0.026;2023-05-24T15:28:02;13.80;;;4.82;;
77417;SDS011;66490;51.484;0.026;2023-05-24T15:31:12;10.93;;;4.22;;
77417;SDS011;66490;51.484;0.026;2023-05-24T15:34:20;10.73;;;4.53;;
77417;SDS011;66490;51.484;0.026;2023-05-24T15:37:13;12.60;;;4.90;;
77417;SDS011;66490;51.484;0.026;2023-05-24T15:40:12;9.13;;;3.83;;
77417;SDS011;66490;51.484;0.026;2023-05-24T15:43:01;8.98;;;4.13;;
77417;SDS011;66490;51.484;0.026;2023-05-24T15:46:07;11.60;;;4.45;;
77417;SDS011;66490;51.484;0.026;2023-05-24T15:52:33;12.10;;;4.15;;
77417;SDS011;66490;51.484;0.026;2023-05-24T15:58:28;9.65;;;3.83;;
77417;SDS011;66490;51.484;0.026;2023-05-24T16:01:31;10.40;;;4.25;;
77417;SDS011;66490;51.484;0.026;2023-05-24T16:04:21;10.05;;;4.00;;
77417;SDS011;66490;51.484;0.026;2023-05-24T16:07:13;10.50;;;4.72;;
77417;SDS011;66490;51.484;0.026;2023-05-24T16:13:14;12.38;;;4.47;;
77417;SDS011;66490;51.484;0.026;2023-05-24T16:19:31;13.32;;;4.72;;
77417;SDS011;66490;51.484;0.026;2023-05-24T16:22:16;13.35;;;4.53;;
77417;SDS011;66490;51.484;0.026;2023-05-24T16:25:07;11.00;;;4.73;;
77417;SDS011;66490;51.484;0.026;2023-05-24T16:35:00;10.43;;;4.38;;
77417;SDS011;66490;51.484;0.026;2023-05-24T16:38:08;10.20;;;4.72;;
77417;SDS011;66490;51.484;0.026;2023-05-24T16:40:58;10.23;;;5.10;;
77417;SDS011;66490;51.484;0.026;2023-05-24T16:44:09;14.88;;;4.63;;
77417;SDS011;66490;51.484;0.026;2023-05-24T16:50:23;10.65;;;4.82;;
77417;SDS011;66490;51.484;0.026;2023-05-24T16:53:13;11.63;;;5.20;;
77417;SDS011;66490;51.484;0.026;2023-05-24T16:56:07;11.03;;;4.50;;
77417;SDS011;66490;51.484;0.026;2023-05-24T16:59:05;8.20;;;4.72;;
77417;SDS011;66490;51.484;0.026;2023-05-24T17:12:22;12.60;;;4.77;;
77417;SDS011;66490;51.484;0.026;2023-05-24T17:16:01;10.57;;;4.40;;
77417;SDS011;66490;51.484;0.026;2023-05-24T17:19:00;10.90;;;5.13;;
77417;SDS011;66490;51.484;0.026;2023-05-24T17:22:26;9.38;;;4.30;;
77417;SDS011;66490;51.484;0.026;2023-05-24T17:25:49;9.27;;;4.68;;
77417;SDS011;66490;51.484;0.026;2023-05-24T17:29:17;10.37;;;4.10;;
77417;SDS011;66490;51.484;0.026;2023-05-24T17:38:54;8.57;;;4.00;;
77417;SDS011;66490;51.484;0.026;2023-05-24T17:41:53;12.15;;;4.13;;
77417;SDS011;66490;51.484;0.026;2023-05-24T17:44:54;10.37;;;4.13;;
77417;SDS011;66490;51.484;0.026;2023-05-24T17:51:04;7.70;;;3.95;;
77417;SDS011;66490;51.484;0.026;2023-05-24T17:54:08;9.98;;;4.30;;
77417;SDS011;66490;51.484;0.026;2023-05-24T18:03:33;8.57;;;3.90;;
77417;SDS011;66490;51.484;0.026;2023-05-24T18:06:40;8.23;;;4.55;;
77417;SDS011;66490;51.484;0.026;2023-05-24T18:13:38;10.88;;;4.65;;
77417;SDS011;66490;51.484;0.026;2023-05-24T18:20:20;10.73;;;4.07;;
77417;SDS011;66490;51.484;0.026;2023-05-24T18:30:35;9.38;;;4.30;;
77417;SDS011;66490;51.484;0.026;2023-05-24T18:33:22;8.97;;;4.20;;
77417;SDS011;66490;51.484;0.026;2023-05-24T18:36:15;11.35;;;4.60;;
77417;SDS011;66490;51.484;0.026;2023-05-24T18:39:00;10.95;;;4.93;;
77417;SDS011;66490;51.484;0.026;2023-05-24T18:45:23;10.77;;;4.68;;
77417;SDS011;66490;51.484;0.026;2023-05-24T18:55:30;10.85;;;4.68;;
77417;SDS011;66490;51.484;0.026;2023-05-24T18:58:14;10.80;;;4.13;;
77417;SDS011;66490;51.484;0.026;2023-05-24T19:03:58;14.00;;;5.07;;
77417;SDS011;66490;51.484;0.026;2023-05-24T19:06:48;18.25;;;4.65;;
77417;SDS011;66490;51.484;0.026;2023-05-24T19:09:48;16.17;;;5.13;;
77417;SDS011;66490;51.484;0.026;2023-05-24T19:12:33;12.88;;;4.90;;